Lena, Illinois
Current Conditions -  °F | °C
As of 12:35 PM on Thursday 30 Oct 2014 (Local Time) from KFEP Reporting Station
Scattered Clouds Scattered Clouds  
Wind Chill: 45°   Ceiling: Unl
Heat Index: 49°   Visibility: 10mi
Dew Point: 35°   Wind: 8mph
Humidity: 60%   Direction: 270°W
Pressure: 30.11"   Gusts: NA
Location:  42.38°N, 89.82°W
Report Text: KFEP 301735Z AUTO 27007KT 10SM SCT120 09/02 A3011 RMK AO2 T00920017
Loading
Personal Weather Stations






























Interactive Weather Map New forecast layout! Learn more

10-Day Weather Forecast

Advertisements
Track Severe Weather on mobile